Time;durP1;ratioP1;P1;durP2;ratioP2;P2;SDS_P1;SDS_P2;PMS_P1;PMS_P2;Temp;Humidity;BMP_temperature;BMP_pressure;BME280_temperature;BME280_humidity;BME280_pressure;Samples;Min_cycle;Max_cycle;Signal;HPM_P1;HPM_P2
2021/10/21 00:01:19;;;;;;;12.58;7.33;;;;;;;13.63;47.93;100337.70;1702689;82;21047;-56
2021/10/21 00:03:45;;;;;;;12.58;6.50;;;;;;;13.60;47.97;100340.16;1768732;78;21676;-56
2021/10/21 00:06:12;;;;;;;12.58;6.87;;;;;;;13.58;48.08;100350.52;1772717;78;21143;-57
2021/10/21 00:08:39;;;;;;;11.38;7.17;;;;;;;13.55;48.14;100340.57;1766821;79;21010;-56
2021/10/21 00:11:05;;;;;;;12.28;6.53;;;;;;;13.53;48.18;100350.47;1764162;78;21077;-56
2021/10/21 00:13:33;;;;;;;11.75;6.35;;;;;;;13.51;48.29;100348.92;1783218;78;21042;-56
2021/10/21 00:16:00;;;;;;;11.35;6.17;;;;;;;13.48;48.35;100350.53;1711208;81;21000;-56
2021/10/21 00:18:26;;;;;;;11.45;7.10;;;;;;;13.47;48.40;100348.38;1683741;82;21057;-56
2021/10/21 00:20:52;;;;;;;12.55;7.35;;;;;;;13.44;48.55;100348.66;1719267;81;21046;-56
2021/10/21 00:23:19;;;;;;;11.18;6.85;;;;;;;13.43;48.58;100348.33;1707301;81;21682;-56
2021/10/21 00:25:45;;;;;;;11.93;6.75;;;;;;;13.40;48.64;100344.65;1707491;82;21082;-56
2021/10/21 00:28:14;;;;;;;14.28;7.58;;;;;;;13.38;48.70;100339.97;1686469;82;21139;-56
2021/10/21 00:30:39;;;;;;;12.82;7.85;;;;;;;13.36;48.74;100337.96;1750735;79;21312;-56
2021/10/21 00:33:06;;;;;;;13.80;7.12;;;;;;;13.31;48.84;100337.02;1710671;81;21086;-56
2021/10/21 00:35:34;;;;;;;11.08;7.15;;;;;;;13.28;48.97;100339.13;1708988;81;21096;-57
2021/10/21 00:38:00;;;;;;;15.18;7.75;;;;;;;13.23;49.04;100328.14;1712253;81;21075;-56
2021/10/21 00:40:27;;;;;;;12.03;6.90;;;;;;;13.19;49.15;100325.78;1770516;79;21081;-57
2021/10/21 00:42:53;;;;;;;16.17;6.92;;;;;;;13.17;49.33;100324.27;1751330;79;21174;-57
2021/10/21 00:45:19;;;;;;;12.10;7.45;;;;;;;13.15;49.38;100321.77;1761866;79;20968;-56
2021/10/21 00:47:47;;;;;;;12.45;7.12;;;;;;;13.12;49.49;100310.66;1756437;78;21126;-56
2021/10/21 00:50:13;;;;;;;10.72;7.00;;;;;;;13.08;49.59;100315.86;1734254;79;21114;-56
2021/10/21 00:52:40;;;;;;;11.43;6.65;;;;;;;13.04;49.63;100304.73;1756002;78;21052;-56
2021/10/21 00:55:07;;;;;;;12.03;7.22;;;;;;;13.01;49.84;100300.59;1734448;79;21473;-56
2021/10/21 00:57:34;;;;;;;10.23;6.97;;;;;;;13.00;49.99;100298.91;1722027;81;21061;-56
2021/10/21 01:00:00;;;;;;;13.25;8.10;;;;;;;12.97;50.11;100293.08;1781570;79;21050;-56
2021/10/21 01:02:27;;;;;;;12.82;6.97;;;;;;;12.94;50.17;100288.08;1782470;78;21074;-56
2021/10/21 01:04:53;;;;;;;13.70;7.35;;;;;;;12.92;50.34;100287.38;1752111;79;21104;-56
2021/10/21 01:07:20;;;;;;;11.55;6.87;;;;;;;12.90;50.51;100290.16;1727789;80;21660;-56
2021/10/21 01:09:48;;;;;;;14.05;7.78;;;;;;;12.88;50.53;100287.30;1705002;81;21094;-56
2021/10/21 01:12:15;;;;;;;15.68;7.50;;;;;;;12.86;50.64;100283.51;1703076;81;21042;-56
2021/10/21 01:14:43;;;;;;;12.33;7.20;;;;;;;12.86;50.67;100283.97;1703171;82;21066;-56
2021/10/21 01:17:10;;;;;;;10.88;7.50;;;;;;;12.82;50.74;100279.47;1778922;79;21038;-56
2021/10/21 01:19:37;;;;;;;10.78;6.80;;;;;;;12.76;50.85;100272.09;1750730;79;21204;-56
2021/10/21 01:22:03;;;;;;;13.68;7.20;;;;;;;12.72;50.99;100270.72;1774356;78;21112;-56
2021/10/21 01:24:31;;;;;;;12.25;7.70;;;;;;;12.67;51.12;100265.84;1780008;78;21563;-56
2021/10/21 01:28:04;;;;;;;13.55;8.18;;;;;;;12.66;51.22;100261.56;1773479;78;22650;-57
2021/10/21 01:30:31;;;;;;;12.88;7.72;;;;;;;12.60;51.32;100268.70;1747751;80;21086;-57
2021/10/21 01:32:57;;;;;;;14.00;8.18;;;;;;;12.56;51.46;100266.01;1746017;80;21595;-57
2021/10/21 01:35:23;;;;;;;13.70;9.05;;;;;;;12.56;51.65;100264.69;1749474;80;20959;-57
2021/10/21 01:37:51;;;;;;;17.55;10.20;;;;;;;12.55;51.68;100260.37;1740972;80;21496;-57
2021/10/21 01:40:19;;;;;;;18.77;10.05;;;;;;;12.50;51.67;100258.64;1740850;80;21055;-56
2021/10/21 01:42:45;;;;;;;16.87;8.75;;;;;;;12.45;51.76;100258.55;1741978;80;21043;-57
2021/10/21 01:45:24;;;;;;;13.98;8.95;;;;;;;12.41;51.97;100253.20;1748807;80;22003;-57
2021/10/21 01:47:51;;;;;;;11.05;7.53;;;;;;;12.38;52.02;100257.44;1744762;80;21623;-57
2021/10/21 01:50:18;;;;;;;15.80;8.30;;;;;;;12.35;52.17;100260.34;1728528;80;21999;-57
2021/10/21 01:52:47;;;;;;;14.60;8.35;;;;;;;12.30;52.22;100257.28;1703560;83;21027;-57
2021/10/21 01:55:14;;;;;;;12.25;7.72;;;;;;;12.26;52.35;100248.81;1714628;81;21061;-57
2021/10/21 01:57:41;;;;;;;12.50;7.67;;;;;;;12.25;52.39;100247.63;1689223;83;21205;-57
2021/10/21 02:00:10;;;;;;;16.23;8.18;;;;;;;12.23;52.41;100246.45;1684530;82;21124;-57
2021/10/21 02:02:42;;;;;;;11.45;8.03;;;;;;;12.21;52.43;100247.58;1715467;81;21554;-57
2021/10/21 02:05:09;;;;;;;11.60;7.37;;;;;;;12.19;52.58;100240.29;1703345;83;21163;-55
2021/10/21 02:07:36;;;;;;;13.03;8.40;;;;;;;12.15;52.63;100236.23;1690856;83;21096;-55
2021/10/21 02:10:11;;;;;;;11.68;7.50;;;;;;;12.13;52.73;100238.19;1706544;82;23364;-54
2021/10/21 02:12:40;;;;;;;15.65;8.28;;;;;;;12.08;52.80;100239.41;1708879;82;21085;-56
2021/10/21 02:15:08;;;;;;;15.25;8.23;;;;;;;12.05;52.90;100237.07;1713898;81;21101;-56
2021/10/21 02:17:34;;;;;;;13.18;8.15;;;;;;;12.02;53.05;100233.38;1716130;81;21084;-56
2021/10/21 02:20:01;;;;;;;16.15;8.55;;;;;;;11.98;53.17;100233.28;1699750;82;21046;-55
2021/10/21 02:22:27;;;;;;;16.05;8.58;;;;;;;11.93;53.30;100238.13;1698990;82;21158;-55
2021/10/21 02:24:54;;;;;;;12.82;8.38;;;;;;;11.89;53.48;100241.98;1676281;83;21079;-55
2021/10/21 02:27:21;;;;;;;16.23;9.23;;;;;;;11.84;53.57;100231.02;1680530;82;21568;-56
2021/10/21 02:29:47;;;;;;;12.93;8.38;;;;;;;11.79;53.72;100234.55;1689627;83;21522;-56
2021/10/21 02:32:14;;;;;;;14.47;7.75;;;;;;;11.77;53.82;100229.41;1685773;83;21067;-56
2021/10/21 02:34:40;;;;;;;14.07;8.23;;;;;;;11.77;53.92;100226.77;1686653;83;21216;-56
2021/10/21 02:37:08;;;;;;;15.32;8.30;;;;;;;11.75;54.02;100227.86;1686144;83;21513;-56
2021/10/21 02:39:35;;;;;;;12.58;8.08;;;;;;;11.71;54.10;100217.58;1729384;81;21074;-56
2021/10/21 02:42:02;;;;;;;12.10;7.75;;;;;;;11.69;54.20;100215.56;1731039;81;21091;-56
2021/10/21 02:44:28;;;;;;;16.45;9.08;;;;;;;11.67;54.26;100204.33;1733966;81;21053;-56
2021/10/21 02:46:54;;;;;;;13.55;7.72;;;;;;;11.66;54.32;100209.73;1730671;81;21230;-56
2021/10/21 02:49:21;;;;;;;17.30;8.58;;;;;;;11.62;54.51;100204.39;1731856;81;21486;-56
2021/10/21 02:51:48;;;;;;;16.82;7.85;;;;;;;11.62;54.53;100207.03;1735394;81;21100;-56
2021/10/21 02:54:15;;;;;;;15.45;7.85;;;;;;;11.59;54.58;100198.89;1704443;81;21117;-56
2021/10/21 02:56:41;;;;;;;15.13;8.78;;;;;;;11.56;54.74;100194.38;1719711;81;21561;-56
2021/10/21 02:59:07;;;;;;;14.53;8.00;;;;;;;11.53;54.91;100191.51;1716715;82;21106;-56
2021/10/21 03:01:34;;;;;;;16.93;9.50;;;;;;;11.52;54.95;100200.40;1722634;82;21092;-56
2021/10/21 03:04:01;;;;;;;13.75;8.15;;;;;;;11.49;55.03;100203.30;1669940;85;21125;-56
2021/10/21 03:06:27;;;;;;;14.33;7.85;;;;;;;11.47;55.15;100198.65;1653139;83;21117;-56
2021/10/21 03:08:54;;;;;;;16.30;8.43;;;;;;;11.47;55.12;100192.89;1656183;84;21587;-56
2021/10/21 03:11:20;;;;;;;13.15;7.87;;;;;;;11.45;55.17;100190.88;1722435;82;21241;-57
2021/10/21 03:13:47;;;;;;;16.15;8.40;;;;;;;11.44;55.24;100189.69;1693089;81;22219;-56
2021/10/21 03:16:15;;;;;;;12.40;7.80;;;;;;;11.42;55.31;100183.23;1723340;82;21164;-56
2021/10/21 03:18:42;;;;;;;16.20;8.50;;;;;;;11.41;55.38;100182.87;1722412;82;21523;-56
2021/10/21 03:21:08;;;;;;;12.95;7.70;;;;;;;11.40;55.40;100180.37;1698135;82;21132;-56
2021/10/21 03:23:34;;;;;;;16.10;8.70;;;;;;;11.38;55.59;100183.63;1713628;82;22710;-57
2021/10/21 03:26:01;;;;;;;12.30;8.40;;;;;;;11.34;55.54;100179.93;1653394;85;21096;-56
2021/10/21 03:28:29;;;;;;;14.70;8.43;;;;;;;11.34;55.60;100185.69;1699896;82;21026;-56
2021/10/21 03:30:56;;;;;;;16.23;8.23;;;;;;;11.34;55.63;100186.52;1694690;82;21524;-57
2021/10/21 03:33:22;;;;;;;13.18;8.75;;;;;;;11.34;55.65;100184.38;1733033;80;21082;-57
2021/10/21 03:35:49;;;;;;;15.48;8.88;;;;;;;11.33;55.70;100180.92;1741688;80;21140;-56
2021/10/21 03:38:15;;;;;;;13.90;8.73;;;;;;;11.33;55.70;100173.02;1703328;82;21051;-56
2021/10/21 03:40:42;;;;;;;14.28;7.83;;;;;;;11.30;55.79;100166.69;1700071;82;21118;-57
2021/10/21 03:43:08;;;;;;;11.83;8.45;;;;;;;11.29;55.83;100170.28;1700713;82;21053;-56
2021/10/21 03:45:36;;;;;;;13.48;8.28;;;;;;;11.27;55.91;100166.95;1695785;82;21082;-57
2021/10/21 03:48:02;;;;;;;13.78;9.28;;;;;;;11.27;55.98;100164.31;1737316;80;21548;-56
2021/10/21 03:50:29;;;;;;;11.30;8.23;;;;;;;11.26;56.02;100165.30;1734109;80;20920;-56
2021/10/21 03:52:55;;;;;;;11.90;7.80;;;;;;;11.25;56.08;100158.36;1711551;80;20994;-57
2021/10/21 03:55:22;;;;;;;14.73;8.83;;;;;;;11.22;56.18;100157.30;1695070;83;20911;-57
2021/10/21 03:57:49;;;;;;;16.30;9.28;;;;;;;11.20;56.18;100155.28;1704962;82;21324;-56
2021/10/21 04:00:15;;;;;;;13.10;7.67;;;;;;;11.18;56.28;100157.23;1733218;80;21204;-57
2021/10/21 04:02:41;;;;;;;14.18;7.97;;;;;;;11.18;56.32;100153.27;1737435;80;21012;-57
2021/10/21 04:05:08;;;;;;;11.20;8.28;;;;;;;11.18;56.38;100148.47;1740259;80;21078;-56
2021/10/21 04:07:36;;;;;;;12.80;8.05;;;;;;;11.15;56.48;100145.64;1678533;82;22254;-57
2021/10/21 04:10:05;;;;;;;12.03;7.62;;;;;;;11.13;56.51;100143.62;1701315;83;21066;-58
2021/10/21 04:12:31;;;;;;;13.45;7.92;;;;;;;11.11;56.57;100146.84;1686587;84;21839;-57
2021/10/21 04:14:58;;;;;;;14.40;8.83;;;;;;;11.10;56.57;100141.25;1717928;81;21089;-57
2021/10/21 04:17:25;;;;;;;14.80;8.78;;;;;;;11.08;56.69;100143.19;1738290;80;21074;-57
2021/10/21 04:19:52;;;;;;;13.30;9.13;;;;;;;11.09;56.70;100131.67;1736400;80;21049;-57
2021/10/21 04:22:19;;;;;;;13.80;9.13;;;;;;;11.08;56.73;100130.02;1723814;81;21136;-57
2021/10/21 04:24:45;;;;;;;13.00;8.58;;;;;;;11.07;56.73;100129.66;1740340;80;21571;-58
2021/10/21 04:27:12;;;;;;;11.63;7.53;;;;;;;11.06;56.83;100134.10;1707500;82;21117;-57
2021/10/21 04:29:39;;;;;;;14.53;8.63;;;;;;;11.05;56.84;100127.65;1739454;80;21411;-57
2021/10/21 04:32:06;;;;;;;13.48;8.70;;;;;;;11.04;56.83;100124.66;1699362;82;21058;-57
2021/10/21 04:34:32;;;;;;;14.43;8.45;;;;;;;11.03;56.85;100117.70;1725609;81;21081;-57
2021/10/21 04:37:00;;;;;;;14.00;7.10;;;;;;;11.01;56.87;100120.50;1720822;80;22212;-57
2021/10/21 04:39:26;;;;;;;15.18;7.40;;;;;;;10.97;56.99;100121.71;1715256;81;22226;-56
2021/10/21 04:41:53;;;;;;;13.85;8.10;;;;;;;10.96;57.11;100121.34;1738865;80;21030;-57
2021/10/21 04:44:19;;;;;;;12.43;8.85;;;;;;;10.94;57.11;100120.66;1734053;80;21673;-57
2021/10/21 04:46:46;;;;;;;16.77;8.98;;;;;;;10.91;57.22;100116.50;1734669;80;21070;-56
2021/10/21 04:49:12;;;;;;;14.68;8.60;;;;;;;10.89;57.32;100106.59;1734030;80;22139;-57
2021/10/21 04:51:38;;;;;;;12.80;8.10;;;;;;;10.87;57.44;100110.31;1718687;80;21113;-57
2021/10/21 04:54:05;;;;;;;11.73;8.40;;;;;;;10.84;57.52;100104.81;1735034;80;21102;-56
2021/10/21 04:56:31;;;;;;;12.78;8.05;;;;;;;10.84;57.60;100103.49;1719340;81;21184;-56
2021/10/21 04:58:58;;;;;;;17.10;8.70;;;;;;;10.83;57.72;100100.53;1740697;80;21094;-57
2021/10/21 05:01:24;;;;;;;15.90;8.90;;;;;;;10.83;57.82;100102.34;1738821;80;21145;-58
2021/10/21 05:03:51;;;;;;;13.62;8.28;;;;;;;10.87;57.70;100099.78;1734092;80;21048;-57
2021/10/21 05:06:17;;;;;;;13.00;8.05;;;;;;;10.96;57.68;100093.25;1741601;80;21086;-57
2021/10/21 05:08:43;;;;;;;12.37;7.62;;;;;;;11.02;57.49;100090.55;1699792;82;21984;-57
2021/10/21 05:11:10;;;;;;;12.75;8.40;;;;;;;11.03;57.53;100084.34;1701096;82;21061;-56
2021/10/21 05:13:38;;;;;;;15.28;9.25;;;;;;;11.04;57.43;100095.69;1702798;82;21080;-57
2021/10/21 05:16:06;;;;;;;14.15;9.05;;;;;;;11.03;57.44;100094.02;1736542;80;21036;-57
2021/10/21 05:18:33;;;;;;;13.30;8.78;;;;;;;11.02;57.45;100098.95;1738129;80;21081;-57
2021/10/21 05:20:59;;;;;;;17.60;9.00;;;;;;;11.01;57.56;100100.75;1737088;80;21490;-56
2021/10/21 05:23:26;;;;;;;14.33;8.73;;;;;;;11.00;57.53;100104.84;1700286;82;21078;-56
2021/10/21 05:25:53;;;;;;;12.90;8.63;;;;;;;11.00;57.60;100109.61;1689801;83;23251;-55
2021/10/21 05:28:19;;;;;;;12.18;8.13;;;;;;;11.00;57.57;100105.66;1687324;82;21079;-57
2021/10/21 05:30:45;;;;;;;14.13;8.65;;;;;;;11.03;57.64;100104.55;1684173;83;21107;-56
2021/10/21 05:33:11;;;;;;;11.65;7.87;;;;;;;11.03;57.66;100104.08;1669050;83;21075;-56
2021/10/21 05:35:38;;;;;;;17.17;8.73;;;;;;;11.04;57.62;100108.86;1681850;83;21068;-57
2021/10/21 05:38:04;;;;;;;13.32;8.98;;;;;;;11.05;57.56;100110.53;1671472;83;21263;-58
2021/10/21 05:40:31;;;;;;;12.58;8.43;;;;;;;11.07;57.62;100105.96;1684952;83;21563;-57
2021/10/21 05:42:58;;;;;;;13.05;9.00;;;;;;;11.08;57.64;100112.91;1668823;83;21152;-56
2021/10/21 05:45:24;;;;;;;14.58;8.98;;;;;;;11.11;57.57;100109.52;1681399;83;21600;-57
2021/10/21 05:47:51;;;;;;;13.50;8.88;;;;;;;11.13;57.51;100113.34;1683173;83;21099;-57
2021/10/21 05:50:17;;;;;;;16.93;9.23;;;;;;;11.16;57.58;100111.73;1677601;83;22003;-57
2021/10/21 05:52:45;;;;;;;13.88;8.83;;;;;;;11.20;57.63;100114.47;1685594;83;21130;-56
2021/10/21 05:55:11;;;;;;;14.53;8.10;;;;;;;11.25;57.52;100112.76;1725274;80;21666;-57
2021/10/21 05:57:38;;;;;;;19.70;9.53;;;;;;;11.27;57.46;100110.33;1724920;80;21127;-57
2021/10/21 06:00:08;;;;;;;12.10;7.87;;;;;;;11.31;57.43;100109.11;1685040;82;21575;-57
2021/10/21 06:02:36;;;;;;;16.62;9.75;;;;;;;11.40;57.35;100124.58;1726199;80;21269;-56
2021/10/21 06:05:04;;;;;;;16.67;10.15;;;;;;;11.54;57.26;100116.77;1689351;82;22397;-56
2021/10/21 06:07:31;;;;;;;15.10;9.73;;;;;;;11.63;56.98;100105.44;1724282;80;21062;-56
2021/10/21 06:09:58;;;;;;;16.57;9.98;;;;;;;11.67;56.76;100107.30;1725949;80;21611;-55
2021/10/21 06:12:25;;;;;;;15.55;9.10;;;;;;;11.70;56.75;100111.81;1718103;81;21074;-57
2021/10/21 06:14:52;;;;;;;15.72;10.45;;;;;;;11.74;56.72;100107.59;1729156;80;22648;-56
2021/10/21 06:17:20;;;;;;;20.32;10.72;;;;;;;11.75;56.74;100110.09;1705401;81;20992;-57
2021/10/21 06:19:46;;;;;;;17.82;10.13;;;;;;;11.77;56.58;100103.34;1728497;80;21019;-56
2021/10/21 06:22:18;;;;;;;14.47;9.50;;;;;;;11.75;56.74;100099.55;1724711;80;21973;-56
2021/10/21 06:24:41;;;;;;;19.27;10.28;;;;;;;11.76;56.62;100101.69;1670736;82;21044;-57
2021/10/21 06:27:07;;;;;;;15.50;10.48;;;;;;;11.77;56.70;100105.97;1726921;80;21274;-56
2021/10/21 06:29:34;;;;;;;15.10;9.58;;;;;;;11.79;56.57;100108.01;1720230;80;21548;-55
2021/10/21 06:32:00;;;;;;;16.15;10.72;;;;;;;11.82;56.79;100107.74;1726123;80;21101;-56
2021/10/21 06:34:27;;;;;;;17.62;10.65;;;;;;;11.87;56.58;100102.88;1723518;81;21679;-56
2021/10/21 06:36:54;;;;;;;16.30;10.03;;;;;;;11.90;56.37;100102.12;1727023;80;21118;-54
2021/10/21 06:39:20;;;;;;;14.90;10.08;;;;;;;11.92;56.29;100101.16;1725774;80;21148;-56
2021/10/21 06:41:46;;;;;;;15.48;9.43;;;;;;;11.93;56.45;100101.03;1727168;80;22305;-58
2021/10/21 06:44:14;;;;;;;15.13;9.83;;;;;;;11.96;56.65;100102.56;1693786;82;21077;-59
2021/10/21 06:46:42;;;;;;;14.63;9.35;;;;;;;12.00;56.45;100088.98;1694988;82;22152;-58
2021/10/21 06:49:09;;;;;;;16.17;10.55;;;;;;;12.05;56.33;100094.66;1729652;80;21071;-57
2021/10/21 06:51:35;;;;;;;14.63;9.53;;;;;;;12.10;56.12;100090.76;1731498;80;21952;-57
2021/10/21 06:54:01;;;;;;;14.78;9.73;;;;;;;12.13;56.11;100086.53;1739714;80;21043;-58
2021/10/21 06:56:28;;;;;;;13.35;9.70;;;;;;;12.18;56.02;100086.44;1676501;83;21356;-59
2021/10/21 06:58:55;;;;;;;12.45;9.23;;;;;;;12.24;56.17;100090.34;1731131;80;21035;-58
2021/10/21 07:01:21;;;;;;;16.40;9.25;;;;;;;12.30;55.88;100090.25;1729787;80;21031;-60
2021/10/21 07:03:47;;;;;;;16.62;9.63;;;;;;;12.35;55.76;100088.84;1727346;80;21858;-59
2021/10/21 07:06:14;;;;;;;14.47;9.90;;;;;;;12.40;55.77;100085.30;1730336;80;21059;-59
2021/10/21 07:08:40;;;;;;;17.50;10.10;;;;;;;12.49;55.76;100084.95;1728297;80;22371;-58
2021/10/21 07:11:08;;;;;;;14.45;9.10;;;;;;;12.57;55.35;100093.45;1718694;81;21043;-57
2021/10/21 07:13:36;;;;;;;16.23;10.25;;;;;;;12.64;55.33;100083.52;1700562;82;21098;-58
2021/10/21 07:16:05;;;;;;;16.77;10.20;;;;;;;12.75;54.92;100086.46;1694064;82;21101;-57
2021/10/21 07:18:32;;;;;;;17.52;9.68;;;;;;;12.82;54.59;100076.97;1727338;80;22180;-56
2021/10/21 07:20:58;;;;;;;17.20;10.70;;;;;;;12.91;54.44;100078.41;1743627;80;21051;-56
2021/10/21 07:23:26;;;;;;;14.55;9.98;;;;;;;12.97;54.30;100069.41;1724793;80;21102;-58
2021/10/21 07:25:52;;;;;;;18.75;10.23;;;;;;;13.03;54.34;100070.66;1691103;82;21151;-58
2021/10/21 07:28:21;;;;;;;16.82;10.78;;;;;;;13.12;54.26;100074.22;1727002;80;21661;-58
2021/10/21 07:30:50;;;;;;;14.68;9.80;;;;;;;13.19;54.10;100070.83;1729387;80;21086;-56
2021/10/21 07:33:15;;;;;;;18.82;10.72;;;;;;;13.27;53.87;100071.92;1724567;80;21091;-57
2021/10/21 07:35:42;;;;;;;19.85;10.72;;;;;;;13.34;53.42;100065.09;1714691;80;22344;-57
2021/10/21 07:38:08;;;;;;;15.68;10.13;;;;;;;13.42;53.18;100065.68;1731677;80;21035;-57
2021/10/21 07:40:35;;;;;;;14.53;10.05;;;;;;;13.50;53.13;100067.91;1727000;80;21122;-57
2021/10/21 07:43:01;;;;;;;16.25;9.78;;;;;;;13.56;53.15;100068.61;1732073;80;20992;-57
2021/10/21 07:45:30;;;;;;;13.62;9.55;;;;;;;13.66;52.98;100066.41;1703144;83;21090;-56
2021/10/21 07:47:57;;;;;;;14.25;10.10;;;;;;;13.75;52.87;100061.52;1716562;81;21039;-57
2021/10/21 07:50:23;;;;;;;14.87;9.45;;;;;;;13.83;52.78;100061.59;1728417;80;21122;-57
2021/10/21 07:52:49;;;;;;;15.58;9.58;;;;;;;13.91;52.52;100052.91;1723587;80;21015;-56
2021/10/21 07:55:16;;;;;;;14.75;9.78;;;;;;;13.97;52.37;100048.34;1720599;80;21076;-57
2021/10/21 07:57:42;;;;;;;17.73;10.23;;;;;;;14.01;52.09;100051.02;1694197;82;21603;-57
2021/10/21 08:00:11;;;;;;;13.68;9.20;;;;;;;14.06;52.08;100047.91;1730616;80;21504;-57
2021/10/21 08:02:42;;;;;;;14.40;9.93;;;;;;;14.11;51.65;100039.02;1721398;80;21074;-58
2021/10/21 08:05:09;;;;;;;16.40;9.85;;;;;;;14.13;51.56;100044.48;1717656;81;22475;-57
2021/10/21 08:07:42;;;;;;;17.23;10.25;;;;;;;14.18;51.52;100041.38;1726339;80;21056;-56
2021/10/21 08:10:13;;;;;;;15.15;9.70;;;;;;;14.28;51.33;100039.46;1728944;80;21091;-58
2021/10/21 08:12:39;;;;;;;13.60;9.28;;;;;;;14.36;51.24;100034.73;1726754;80;21059;-58
2021/10/21 08:15:08;;;;;;;17.20;9.20;;;;;;;14.47;50.80;100036.27;1695467;82;21165;-57
2021/10/21 08:17:34;;;;;;;15.20;9.40;;;;;;;14.55;51.02;100024.91;1731250;80;21103;-58
2021/10/21 08:20:01;;;;;;;13.13;9.00;;;;;;;14.64;50.70;100021.33;1718486;80;21114;-56
2021/10/21 08:22:28;;;;;;;15.60;9.75;;;;;;;14.70;50.16;100023.36;1731382;80;21592;-58
2021/10/21 08:24:56;;;;;;;12.95;7.83;;;;;;;14.76;49.59;100020.08;1726997;80;21126;-56
2021/10/21 08:27:22;;;;;;;16.75;9.20;;;;;;;14.77;49.54;100019.08;1733712;80;21039;-55
2021/10/21 08:29:51;;;;;;;11.85;8.38;;;;;;;14.80;49.74;100015.29;1730458;80;21273;-56
2021/10/21 08:32:18;;;;;;;11.80;8.33;;;;;;;14.85;49.71;100009.02;1705256;82;21077;-58
2021/10/21 08:34:45;;;;;;;16.15;9.13;;;;;;;14.89;49.42;100009.02;1704857;82;21074;-56
2021/10/21 08:37:12;;;;;;;20.27;8.80;;;;;;;14.93;49.36;100002.43;1708348;82;21665;-55
2021/10/21 08:39:39;;;;;;;14.60;9.08;;;;;;;14.98;49.42;99993.50;1703031;82;21108;-57
2021/10/21 08:42:05;;;;;;;13.18;7.87;;;;;;;15.05;49.26;99997.66;1706882;82;23377;-57
2021/10/21 08:44:36;;;;;;;13.55;8.78;;;;;;;15.14;49.20;99997.19;1682860;82;21614;-56
2021/10/21 08:47:02;;;;;;;12.28;9.15;;;;;;;15.22;49.48;99994.55;1688335;82;21140;-57
2021/10/21 08:49:30;;;;;;;13.03;8.75;;;;;;;15.31;49.03;99991.41;1706133;82;21061;-57
2021/10/21 08:51:57;;;;;;;16.55;8.78;;;;;;;15.37;49.13;99988.13;1687215;82;21046;-56
2021/10/21 08:54:23;;;;;;;11.95;8.18;;;;;;;15.44;49.36;99990.45;1702447;82;21512;-58
2021/10/21 08:56:50;;;;;;;14.75;9.28;;;;;;;15.51;49.06;99985.31;1689103;82;21072;-58
2021/10/21 08:59:16;;;;;;;15.18;8.73;;;;;;;15.57;49.34;99978.86;1682884;82;21042;-56
2021/10/21 09:01:56;;;;;;;13.75;8.63;;;;;;;15.63;48.57;99978.68;1682532;82;21558;-59
2021/10/21 09:04:20;;;;;;;14.53;8.70;;;;;;;15.67;48.46;99967.23;1653414;83;21046;-59
2021/10/21 09:09:29;;;;;;;13.32;7.95;;;;;;;15.75;48.14;99956.19;1683269;82;21621;-57
2021/10/21 09:12:05;;;;;;;12.55;7.60;;;;;;;15.84;48.04;99949.04;1661220;83;21023;-57
2021/10/21 09:14:34;;;;;;;12.88;9.10;;;;;;;15.94;48.04;99936.92;1664934;84;21000;-58
2021/10/21 09:17:03;;;;;;;17.87;9.00;;;;;;;16.08;47.92;99931.42;1688776;82;21482;-58
2021/10/21 09:19:31;;;;;;;14.18;7.70;;;;;;;16.20;46.71;99934.03;1689682;82;21110;-57
2021/10/21 09:21:57;;;;;;;12.73;8.13;;;;;;;16.29;46.38;99933.50;1666156;84;21075;-59
2021/10/21 09:24:32;;;;;;;14.65;8.75;;;;;;;16.29;46.00;99919.75;1658512;84;21047;-57
2021/10/21 09:27:16;;;;;;;15.80;9.33;;;;;;;16.30;46.31;99917.91;1684193;82;21122;-58
2021/10/21 09:29:51;;;;;;;16.45;9.80;;;;;;;16.34;46.26;99919.23;1687069;82;22330;-58
2021/10/21 09:32:29;;;;;;;13.28;8.03;;;;;;;16.39;46.49;99908.93;1702665;83;21168;-58
2021/10/21 09:35:05;;;;;;;12.25;8.08;;;;;;;16.45;46.04;99896.27;1711102;82;21041;-58
2021/10/21 09:37:41;;;;;;;14.65;8.05;;;;;;;16.52;45.71;99893.75;1677687;82;21077;-57
2021/10/21 09:40:12;;;;;;;14.68;9.03;;;;;;;16.57;45.47;99895.89;1681675;82;21094;-58
2021/10/21 09:42:41;;;;;;;12.98;8.40;;;;;;;16.59;45.26;99881.42;1704222;82;21071;-57
2021/10/21 09:45:20;;;;;;;15.68;8.55;;;;;;;16.64;45.55;99882.23;1695037;82;21097;-58
2021/10/21 09:47:52;;;;;;;14.63;8.53;;;;;;;16.72;45.24;99880.86;1674618;83;21063;-58
2021/10/21 09:50:39;;;;;;;11.60;7.58;;;;;;;16.80;45.12;99872.03;1688204;82;21075;-58
2021/10/21 09:53:35;;;;;;;12.70;8.45;;;;;;;16.89;44.92;99870.98;1692139;82;21497;-57
2021/10/21 09:56:04;;;;;;;17.82;8.15;;;;;;;16.99;45.67;99858.28;1693986;82;21002;-57
2021/10/21 09:58:36;;;;;;;12.13;8.45;;;;;;;17.13;45.04;99860.70;1698914;82;21121;-58
2021/10/21 10:01:13;;;;;;;10.78;7.35;;;;;;;17.19;44.36;99854.64;1661051;84;21030;-58
2021/10/21 10:03:44;;;;;;;11.20;7.62;;;;;;;17.21;44.26;99855.28;1677938;82;21512;-58
2021/10/21 10:06:12;;;;;;;14.85;8.45;;;;;;;17.27;44.42;99844.45;1705243;82;21120;-58
2021/10/21 10:08:39;;;;;;;11.63;8.20;;;;;;;17.32;43.98;99840.75;1685852;82;21087;-58
2021/10/21 10:11:11;;;;;;;11.00;7.90;;;;;;;17.38;44.28;99841.37;1680428;82;21047;-58
2021/10/21 10:13:36;;;;;;;13.65;8.23;;;;;;;17.48;43.49;99845.08;1661213;82;21551;-58
2021/10/21 10:16:03;;;;;;;10.78;7.25;;;;;;;17.54;43.63;99832.39;1667804;82;21095;-58
2021/10/21 10:18:31;;;;;;;14.38;7.67;;;;;;;17.62;43.30;99833.64;1686086;84;21109;-57
2021/10/21 10:21:15;;;;;;;14.95;8.33;;;;;;;17.72;42.98;99828.06;1707322;82;21061;-57
2021/10/21 10:23:53;;;;;;;10.38;6.62;;;;;;;17.77;42.49;99832.33;1693002;83;21161;-57
2021/10/21 10:26:46;;;;;;;10.95;7.97;;;;;;;17.84;42.36;99824.44;1674771;83;21526;-58
2021/10/21 10:29:15;;;;;;;11.15;7.03;;;;;;;17.90;42.37;99814.91;1692337;83;21024;-58
2021/10/21 10:31:54;;;;;;;11.83;7.42;;;;;;;17.98;42.44;99818.81;1657667;83;21095;-59
2021/10/21 10:34:38;;;;;;;12.55;7.75;;;;;;;18.07;41.86;99803.56;1681612;83;21094;-60
2021/10/21 10:37:20;;;;;;;11.50;7.50;;;;;;;18.17;41.38;99800.09;1675838;83;21204;-57
2021/10/21 10:39:58;;;;;;;12.55;8.08;;;;;;;18.28;41.68;99800.13;1680359;83;21024;-59
2021/10/21 10:42:37;;;;;;;13.98;7.60;;;;;;;18.40;41.31;99797.30;1680749;84;21079;-59
2021/10/21 10:45:07;;;;;;;12.43;8.30;;;;;;;18.49;40.48;99792.66;1684269;83;21094;-58
2021/10/21 10:47:48;;;;;;;14.13;7.65;;;;;;;18.51;40.68;99779.48;1687761;84;20984;-59
2021/10/21 10:50:30;;;;;;;13.18;7.65;;;;;;;18.56;40.49;99775.75;1684496;83;21560;-58
2021/10/21 10:53:03;;;;;;;10.55;6.95;;;;;;;18.64;40.57;99772.12;1679341;83;21059;-58
2021/10/21 10:55:47;;;;;;;10.85;7.58;;;;;;;18.76;40.34;99776.42;1681746;83;21468;-59
2021/10/21 10:58:24;;;;;;;12.30;8.35;;;;;;;18.87;39.98;99776.47;1677031;84;21034;-58
2021/10/21 11:00:56;;;;;;;11.53;8.70;;;;;;;18.96;40.06;99762.48;1681747;84;20988;-58
2021/10/21 11:03:43;;;;;;;17.40;8.98;;;;;;;19.01;40.21;99760.06;1684137;83;21140;-58
2021/10/21 11:06:13;;;;;;;15.08;9.43;;;;;;;19.03;40.14;99757.54;1688551;84;21088;-58
2021/10/21 11:09:06;;;;;;;23.60;9.88;;;;;;;19.06;40.59;99751.83;1677023;84;21183;-59
2021/10/21 11:11:43;;;;;;;13.88;8.75;;;;;;;19.11;40.16;99748.06;1658604;84;21040;-59
2021/10/21 11:14:17;;;;;;;15.35;9.40;;;;;;;19.18;39.70;99756.11;1676662;83;21040;-58
2021/10/21 11:16:54;;;;;;;14.93;9.68;;;;;;;19.18;40.58;99752.11;1653804;84;21197;-57
2021/10/21 11:19:45;;;;;;;15.53;8.63;;;;;;;19.24;39.92;99739.31;1677098;83;21530;-58
2021/10/21 11:22:26;;;;;;;16.37;8.53;;;;;;;19.24;39.78;99743.83;1659061;84;21627;-59
2021/10/21 11:24:58;;;;;;;16.27;8.48;;;;;;;19.20;40.17;99729.22;1677516;83;21715;-58
2021/10/21 11:27:38;;;;;;;14.78;8.48;;;;;;;19.16;40.19;99734.64;1660900;84;21585;-58
2021/10/21 11:30:13;;;;;;;13.03;8.93;;;;;;;19.12;40.48;99731.55;1682401;84;21122;-58